createdAt,value
2017-06-27T00:02:21.443Z,67.69
2017-06-27T00:04:50.511Z,67.99
2017-06-27T00:07:19.579Z,68.20
2017-06-27T00:09:48.884Z,68.32
2017-06-27T00:12:17.952Z,68.40
2017-06-27T00:14:47.241Z,68.50
2017-06-27T00:17:16.400Z,68.48
2017-06-27T00:19:45.439Z,68.64
2017-06-27T00:22:14.553Z,68.95
2017-06-27T00:24:43.620Z,69.16
2017-06-27T00:27:12.741Z,69.35
2017-06-27T00:29:41.784Z,69.67
2017-06-27T00:32:10.897Z,69.82
2017-06-27T00:34:39.958Z,70.00
2017-06-27T00:37:09.044Z,70.27
2017-06-27T00:39:38.114Z,70.51
2017-06-27T00:42:07.181Z,70.66
2017-06-27T00:44:36.222Z,70.93
2017-06-27T00:47:05.275Z,71.06
2017-06-27T00:49:34.407Z,71.29
2017-06-27T00:52:03.445Z,71.34
2017-06-27T00:54:32.523Z,71.34
2017-06-27T00:57:01.560Z,71.55
2017-06-27T00:59:30.779Z,71.65
2017-06-27T01:01:59.834Z,71.72
2017-06-27T01:04:28.900Z,71.79
2017-06-27T01:06:58.003Z,72.12
2017-06-27T01:09:27.052Z,72.08
2017-06-27T01:11:56.111Z,72.05
2017-06-27T01:14:25.157Z,72.14
2017-06-27T01:16:54.234Z,72.13
2017-06-27T01:19:23.279Z,72.29
2017-06-27T01:21:52.352Z,71.97
2017-06-27T01:24:21.420Z,71.82
2017-06-27T01:26:50.500Z,71.98
2017-06-27T01:29:19.575Z,71.60
2017-06-27T01:31:48.655Z,71.66
2017-06-27T01:34:17.742Z,71.95
2017-06-27T01:36:46.785Z,72.12
2017-06-27T01:39:15.884Z,72.12
2017-06-27T01:41:44.932Z,72.31
2017-06-27T01:44:14.060Z,72.59
2017-06-27T01:46:43.111Z,72.66
2017-06-27T01:49:12.194Z,72.80
2017-06-27T01:51:41.282Z,72.99
2017-06-27T01:54:10.398Z,72.98
2017-06-27T01:56:39.481Z,72.82
2017-06-27T01:59:08.529Z,72.76
2017-06-27T02:01:37.592Z,72.72
2017-06-27T02:04:06.658Z,72.96
2017-06-27T02:06:35.721Z,73.02
2017-06-27T02:09:04.831Z,73.20
2017-06-27T02:11:33.883Z,73.31
2017-06-27T02:14:02.972Z,73.57
2017-06-27T02:16:32.048Z,73.62
2017-06-27T02:19:01.100Z,73.70
2017-06-27T02:21:30.150Z,73.82
2017-06-27T02:23:59.220Z,73.89
2017-06-27T02:26:28.335Z,74.12
2017-06-27T02:28:57.385Z,74.19
2017-06-27T02:31:26.456Z,74.01
2017-06-27T02:33:55.505Z,73.70
2017-06-27T02:36:24.584Z,74.03
2017-06-27T02:38:53.645Z,73.55
2017-06-27T02:41:22.697Z,73.64
2017-06-27T02:43:51.826Z,73.49
2017-06-27T02:46:20.851Z,73.29
2017-06-27T02:48:49.932Z,73.34
2017-06-27T02:51:19.002Z,73.09
2017-06-27T02:53:48.069Z,73.22
2017-06-27T02:56:17.120Z,73.45
2017-06-27T02:58:46.216Z,73.37
2017-06-27T03:01:15.275Z,73.00
2017-06-27T03:03:45.132Z,73.01
2017-06-27T03:06:14.187Z,72.66
2017-06-27T03:08:43.240Z,72.60
2017-06-27T03:11:12.313Z,72.15
2017-06-27T03:13:41.405Z,72.43
2017-06-27T03:16:10.667Z,72.41
2017-06-27T03:18:39.755Z,72.72
2017-06-27T03:21:09.574Z,73.01
2017-06-27T03:23:39.387Z,73.43
2017-06-27T03:26:08.494Z,73.72
2017-06-27T03:28:37.796Z,73.96
2017-06-27T03:31:06.873Z,74.20
2017-06-27T03:33:36.697Z,74.30
2017-06-27T03:36:05.753Z,74.57
2017-06-27T03:38:34.797Z,74.59
2017-06-27T03:41:03.865Z,74.83
2017-06-27T03:43:32.916Z,74.72
2017-06-27T03:46:02.020Z,74.94
2017-06-27T03:48:31.067Z,75.11
2017-06-27T03:51:00.158Z,75.21
2017-06-27T03:53:29.992Z,75.15
2017-06-27T03:55:59.038Z,75.41
2017-06-27T03:58:28.868Z,75.46
2017-06-27T04:00:57.934Z,75.81
2017-06-27T04:03:27.011Z,76.09
2017-06-27T04:05:56.080Z,76.61
2017-06-27T04:08:25.237Z,76.78
2017-06-27T04:10:55.075Z,77.19
2017-06-27T04:13:24.424Z,77.50
2017-06-27T04:15:53.502Z,77.72
2017-06-27T04:18:22.568Z,77.88
2017-06-27T04:20:51.619Z,77.95
2017-06-27T04:23:20.684Z,78.08
2017-06-27T04:25:49.825Z,77.90
2017-06-27T04:28:18.867Z,78.01
2017-06-27T04:30:47.900Z,77.91
2017-06-27T04:33:16.991Z,77.67
2017-06-27T04:35:46.044Z,77.61
2017-06-27T04:38:15.138Z,77.41
2017-06-27T04:40:44.192Z,77.29
2017-06-27T04:43:14.036Z,77.01
2017-06-27T04:45:43.225Z,76.62
2017-06-27T04:48:12.301Z,76.55
2017-06-27T04:50:41.334Z,76.31
2017-06-27T04:53:10.435Z,76.10
2017-06-27T04:55:39.773Z,75.88
2017-06-27T04:58:08.912Z,75.87
2017-06-27T05:00:38.749Z,76.07
2017-06-27T05:03:08.021Z,76.16
2017-06-27T05:05:37.088Z,75.89
2017-06-27T05:08:06.159Z,75.72
2017-06-27T05:10:35.195Z,75.50
2017-06-27T05:13:04.283Z,75.79
2017-06-27T05:15:33.336Z,75.90
2017-06-27T05:18:02.432Z,75.03
2017-06-27T05:20:31.448Z,74.87
2017-06-27T05:23:00.509Z,75.12
2017-06-27T05:25:29.607Z,75.06
2017-06-27T05:27:58.662Z,75.00
2017-06-27T05:30:28.495Z,74.92
2017-06-27T05:32:57.576Z,75.19
2017-06-27T05:35:26.641Z,75.68
2017-06-27T05:37:55.699Z,75.52
2017-06-27T05:40:24.782Z,76.20
2017-06-27T05:42:54.571Z,76.22
2017-06-27T05:45:23.681Z,76.29
2017-06-27T05:47:52.732Z,76.41
2017-06-27T05:50:21.800Z,76.37
2017-06-27T05:52:50.836Z,76.28
2017-06-27T05:55:20.674Z,75.44
2017-06-27T05:57:49.744Z,75.23
2017-06-27T06:00:19.580Z,74.79
2017-06-27T06:02:48.658Z,74.42
2017-06-27T06:05:18.516Z,74.31
2017-06-27T06:07:47.572Z,74.23
2017-06-27T06:10:17.550Z,73.83
2017-06-27T06:12:46.606Z,73.86
2017-06-27T06:15:15.703Z,73.62
2017-06-27T06:17:44.786Z,73.64
2017-06-27T06:20:14.620Z,73.02
2017-06-27T06:22:43.668Z,72.73
2017-06-27T06:25:13.513Z,72.70
2017-06-27T06:27:42.607Z,71.56
2017-06-27T06:30:12.469Z,71.28
2017-06-27T06:32:41.524Z,71.08
2017-06-27T06:35:10.584Z,71.06
2017-06-27T06:37:40.389Z,71.46
2017-06-27T06:40:09.487Z,71.08
2017-06-27T06:42:38.531Z,70.88
2017-06-27T06:45:07.624Z,70.53
2017-06-27T06:47:36.659Z,70.64
2017-06-27T06:50:06.074Z,70.99
2017-06-27T06:52:35.129Z,71.03
2017-06-27T06:55:04.183Z,71.34
2017-06-27T06:57:33.538Z,71.82
2017-06-27T07:00:02.631Z,72.04
2017-06-27T07:02:31.672Z,72.32
2017-06-27T07:05:00.757Z,72.16
2017-06-27T07:07:30.594Z,72.11
2017-06-27T07:10:00.416Z,72.62
2017-06-27T07:12:29.488Z,72.41
2017-06-27T07:14:59.295Z,72.36
2017-06-27T07:17:29.134Z,72.45
2017-06-27T07:19:58.192Z,72.45
2017-06-27T07:22:27.237Z,72.42
2017-06-27T07:24:56.313Z,72.58
2017-06-27T07:27:25.399Z,72.03
2017-06-27T07:29:54.467Z,71.23
2017-06-27T07:32:23.534Z,70.61
2017-06-27T07:34:52.595Z,70.60
2017-06-27T07:37:21.680Z,70.31
2017-06-27T07:39:51.575Z,69.84
2017-06-27T07:42:21.395Z,70.35
2017-06-27T07:44:51.207Z,69.08
2017-06-27T07:47:21.048Z,69.60
2017-06-27T07:49:50.172Z,69.79
2017-06-27T07:52:19.212Z,70.08
2017-06-27T07:54:49.061Z,69.73
2017-06-27T07:57:18.199Z,69.97
2017-06-27T07:59:47.272Z,70.12
2017-06-27T08:02:16.723Z,69.86
2017-06-27T08:04:46.544Z,69.73
2017-06-27T08:07:16.444Z,69.21
2017-06-27T08:09:46.293Z,69.16
2017-06-27T08:12:15.357Z,69.24
2017-06-27T08:14:45.150Z,68.53
2017-06-27T08:17:14.246Z,68.16
2017-06-27T08:19:43.652Z,67.75
2017-06-27T08:22:12.815Z,66.82
2017-06-27T08:24:41.872Z,66.70
2017-06-27T08:27:10.951Z,67.66
2017-06-27T08:29:40.793Z,67.54
2017-06-27T08:32:09.852Z,67.46
2017-06-27T08:34:39.078Z,66.88
2017-06-27T08:37:08.154Z,66.41
2017-06-27T08:39:37.214Z,66.28
2017-06-27T08:42:06.279Z,66.51
2017-06-27T08:44:35.344Z,66.23
2017-06-27T08:47:05.276Z,66.75
2017-06-27T08:49:35.116Z,66.40
2017-06-27T08:52:04.436Z,67.34
2017-06-27T08:54:33.468Z,67.29
2017-06-27T08:57:03.237Z,66.76
2017-06-27T08:59:32.289Z,66.80
2017-06-27T09:02:01.369Z,66.78
2017-06-27T09:04:31.200Z,67.04
2017-06-27T09:07:00.249Z,67.34
2017-06-27T09:09:29.332Z,67.19
2017-06-27T09:11:58.469Z,67.18
2017-06-27T09:14:28.315Z,67.27
2017-06-27T09:16:57.358Z,67.08
2017-06-27T09:19:26.440Z,67.33
2017-06-27T09:21:55.529Z,67.83
2017-06-27T09:24:24.587Z,67.21
2017-06-27T09:26:53.652Z,67.42
2017-06-27T09:29:23.533Z,67.24
2017-06-27T09:31:52.578Z,66.79
2017-06-27T09:34:21.635Z,66.78
2017-06-27T09:36:50.714Z,66.79
2017-06-27T09:39:19.800Z,66.73
2017-06-27T09:41:49.225Z,66.64
2017-06-27T09:44:19.159Z,66.63
2017-06-27T09:46:49.019Z,66.94
2017-06-27T09:49:18.082Z,66.33
2017-06-27T09:51:47.128Z,65.75
2017-06-27T09:54:16.251Z,65.12
2017-06-27T09:56:45.302Z,64.89
2017-06-27T09:59:14.345Z,64.76
2017-06-27T10:01:44.185Z,64.12
2017-06-27T10:04:14.006Z,64.50
2017-06-27T10:06:43.060Z,64.48
2017-06-27T10:09:12.112Z,65.13
2017-06-27T10:11:41.180Z,65.94
2017-06-27T10:14:10.517Z,65.65
2017-06-27T10:16:39.593Z,65.55
2017-06-27T10:19:08.662Z,65.69
2017-06-27T10:21:38.043Z,65.22
2017-06-27T10:24:07.076Z,65.15
2017-06-27T10:26:36.126Z,64.72
2017-06-27T10:29:05.215Z,64.62
2017-06-27T10:31:34.248Z,65.12
2017-06-27T10:34:03.292Z,65.72
2017-06-27T10:36:32.679Z,65.22
2017-06-27T10:39:01.775Z,65.46
2017-06-27T10:41:30.818Z,65.96
2017-06-27T10:44:00.647Z,64.28
2017-06-27T10:46:29.773Z,64.05
2017-06-27T10:48:58.836Z,63.89
2017-06-27T10:51:27.893Z,63.99
2017-06-27T10:53:56.982Z,63.27
2017-06-27T10:56:26.044Z,63.52
2017-06-27T10:58:55.135Z,63.71
2017-06-27T11:01:24.178Z,63.80
2017-06-27T11:03:53.257Z,63.37
2017-06-27T11:06:22.319Z,62.91
2017-06-27T11:08:51.375Z,63.10
2017-06-27T11:11:21.229Z,63.15
2017-06-27T11:13:50.353Z,63.04
2017-06-27T11:16:19.403Z,62.93
2017-06-27T11:18:48.443Z,62.73
2017-06-27T11:21:17.519Z,62.64
2017-06-27T11:23:47.556Z,63.54
2017-06-27T11:26:16.666Z,63.66
2017-06-27T11:28:45.745Z,64.09
2017-06-27T11:31:14.873Z,64.55
2017-06-27T11:33:43.931Z,63.96
2017-06-27T11:36:13.923Z,63.73
2017-06-27T11:38:42.976Z,63.78
2017-06-27T11:41:12.850Z,64.27
2017-06-27T11:43:41.950Z,64.54
2017-06-27T11:46:11.025Z,64.33
2017-06-27T11:48:40.081Z,64.82
2017-06-27T11:51:09.942Z,65.24
2017-06-27T11:53:39.497Z,64.01
2017-06-27T11:56:08.530Z,63.50
2017-06-27T11:58:37.616Z,64.34
2017-06-27T12:01:24.313Z,63.21
2017-06-27T12:06:59.814Z,62.66
2017-06-27T12:09:30.673Z,62.38
2017-06-27T12:11:59.718Z,61.77
2017-06-27T12:14:28.808Z,61.81
2017-06-27T12:16:57.888Z,61.57
2017-06-27T12:19:27.715Z,61.56
2017-06-27T12:21:57.553Z,61.25
2017-06-27T12:24:26.613Z,61.69
2017-06-27T12:26:56.787Z,62.00
2017-06-27T12:29:25.919Z,62.31
2017-06-27T12:31:55.739Z,62.32
2017-06-27T12:34:25.591Z,61.43
2017-06-27T12:36:54.678Z,61.29
2017-06-27T12:39:23.767Z,60.32
2017-06-27T12:41:53.573Z,59.81
2017-06-27T12:44:22.665Z,59.47
2017-06-27T12:46:52.476Z,60.42
2017-06-27T12:49:22.290Z,61.57
2017-06-27T12:51:51.732Z,62.05
2017-06-27T12:54:20.786Z,62.01
2017-06-27T12:56:50.625Z,62.39
2017-06-27T12:59:19.962Z,62.47
2017-06-27T13:01:49.037Z,63.84
2017-06-27T13:04:18.144Z,64.20
2017-06-27T13:06:47.188Z,66.85
2017-06-27T13:09:16.275Z,67.46
2017-06-27T13:11:45.354Z,67.30
2017-06-27T13:14:14.746Z,66.77
2017-06-27T13:16:43.801Z,67.00
2017-06-27T13:19:12.910Z,67.09
2017-06-27T13:21:41.991Z,68.04
2017-06-27T13:24:11.128Z,69.35
2017-06-27T13:26:40.202Z,68.93
2017-06-27T13:29:09.249Z,68.93
2017-06-27T13:31:38.299Z,70.09
2017-06-27T13:34:07.394Z,69.79
2017-06-27T13:36:36.495Z,69.58
2017-06-27T13:39:05.550Z,69.03
2017-06-27T13:41:34.622Z,68.80
2017-06-27T13:44:04.902Z,68.85
2017-06-27T13:46:33.956Z,68.53
2017-06-27T13:49:03.027Z,68.78
2017-06-27T13:51:32.877Z,68.51
2017-06-27T13:54:01.940Z,68.89
2017-06-27T13:56:31.794Z,69.16
2017-06-27T13:59:00.869Z,69.27
2017-06-27T14:01:29.920Z,69.37
2017-06-27T14:03:59.004Z,69.53
2017-06-27T14:06:28.060Z,69.14
2017-06-27T14:08:57.152Z,69.72
2017-06-27T14:11:26.243Z,70.46
2017-06-27T14:13:55.324Z,70.28
2017-06-27T14:16:24.392Z,70.08
2017-06-27T14:18:53.440Z,69.98
2017-06-27T14:21:22.681Z,70.38
2017-06-27T14:23:51.845Z,70.11
2017-06-27T14:26:20.938Z,69.77
2017-06-27T14:28:50.000Z,69.89
2017-06-27T14:31:19.089Z,69.55
2017-06-27T14:33:50.052Z,69.38
2017-06-27T14:36:19.884Z,69.42
2017-06-27T14:38:48.963Z,69.45
2017-06-27T14:41:18.028Z,68.62
2017-06-27T14:43:47.880Z,68.44
2017-06-27T14:46:16.978Z,68.68
2017-06-27T14:48:46.021Z,68.51
2017-06-27T14:51:15.434Z,68.44
2017-06-27T14:53:45.268Z,67.93
2017-06-27T14:56:15.102Z,68.10
2017-06-27T14:58:44.148Z,68.91
2017-06-27T15:01:14.011Z,69.14
2017-06-27T15:03:43.073Z,69.28
2017-06-27T15:06:12.149Z,68.96
2017-06-27T15:08:41.253Z,68.91
2017-06-27T15:11:11.068Z,69.07
2017-06-27T15:13:41.282Z,68.87
2017-06-27T15:16:10.365Z,68.32
2017-06-27T15:18:39.460Z,68.01
2017-06-27T15:21:08.549Z,68.00
2017-06-27T15:23:37.738Z,67.72
2017-06-27T15:26:06.821Z,67.90
2017-06-27T15:28:35.876Z,68.48
2017-06-27T15:31:05.121Z,69.13
2017-06-27T15:33:34.244Z,68.99
2017-06-27T15:36:03.302Z,69.24
2017-06-27T15:38:32.371Z,69.16
2017-06-27T15:41:01.461Z,69.49
2017-06-27T15:43:31.268Z,69.38
2017-06-27T15:46:01.130Z,69.57
2017-06-27T15:48:30.207Z,69.52
2017-06-27T15:50:59.276Z,69.56
2017-06-27T15:53:28.354Z,70.36
2017-06-27T15:55:58.221Z,70.51
2017-06-27T15:58:27.309Z,71.10
2017-06-27T16:00:56.384Z,71.29
2017-06-27T16:03:25.848Z,71.69
2017-06-27T16:05:54.900Z,71.92
2017-06-27T16:08:25.538Z,72.15
2017-06-27T16:10:55.432Z,72.14
2017-06-27T16:13:24.505Z,72.34
2017-06-27T16:15:54.973Z,72.56
2017-06-27T16:18:24.128Z,72.74
2017-06-27T16:20:53.273Z,72.83
2017-06-27T16:23:22.545Z,72.65
2017-06-27T16:25:51.622Z,72.91
2017-06-27T16:28:21.431Z,72.84
2017-06-27T16:30:51.303Z,72.77
2017-06-27T16:33:20.339Z,73.00
2017-06-27T16:35:50.193Z,72.94
2017-06-27T16:38:19.260Z,73.29
2017-06-27T16:40:48.393Z,73.60
2017-06-27T16:43:17.665Z,73.54
2017-06-27T16:45:46.753Z,73.41
2017-06-27T16:48:16.624Z,73.50
2017-06-27T16:50:45.713Z,73.58
2017-06-27T16:53:14.864Z,73.76
2017-06-27T16:55:44.112Z,74.24
2017-06-27T16:58:13.360Z,74.33
2017-06-27T17:00:42.465Z,74.76
2017-06-27T17:03:12.291Z,75.50
2017-06-27T17:05:41.378Z,75.74
2017-06-27T17:08:10.504Z,76.02
2017-06-27T17:10:39.583Z,76.18
2017-06-27T17:13:08.865Z,76.13
2017-06-27T17:15:38.199Z,76.34
2017-06-27T17:18:07.312Z,76.25
2017-06-27T17:20:36.704Z,76.49
2017-06-27T17:23:05.796Z,76.69
2017-06-27T17:25:34.888Z,76.92
2017-06-27T17:28:03.976Z,77.05
2017-06-27T17:30:33.036Z,76.90
2017-06-27T17:33:02.175Z,76.97
2017-06-27T17:35:31.230Z,76.89
2017-06-27T17:38:00.305Z,76.85
2017-06-27T17:40:30.279Z,76.94
2017-06-27T17:43:00.439Z,76.80
2017-06-27T17:45:30.264Z,76.60
2017-06-27T17:47:59.361Z,77.03
2017-06-27T17:50:29.218Z,77.10
2017-06-27T17:52:58.347Z,77.16
2017-06-27T17:55:27.445Z,77.20
2017-06-27T17:57:57.300Z,77.18
2017-06-27T18:00:26.384Z,76.84
2017-06-27T18:02:55.509Z,76.91
2017-06-27T18:05:24.759Z,76.78
2017-06-27T18:07:54.222Z,76.43
2017-06-27T18:10:24.177Z,76.04
2017-06-27T18:12:54.329Z,76.04
2017-06-27T18:15:23.416Z,76.08
2017-06-27T18:17:52.498Z,76.71
2017-06-27T18:20:22.335Z,76.49
2017-06-27T18:22:51.399Z,76.68
2017-06-27T18:25:20.482Z,76.53
2017-06-27T18:27:50.320Z,76.32
2017-06-27T18:30:19.431Z,76.29
2017-06-27T18:32:48.513Z,76.11
2017-06-27T18:35:17.629Z,75.80
2017-06-27T18:37:46.722Z,75.57
2017-06-27T18:40:15.850Z,75.45
2017-06-27T18:42:44.904Z,75.22
2017-06-27T18:45:14.028Z,75.08
2017-06-27T18:47:43.068Z,74.91
2017-06-27T18:50:13.089Z,74.88
2017-06-27T18:52:43.014Z,74.88
2017-06-27T18:55:12.879Z,74.54
2017-06-27T18:57:42.619Z,74.43
2017-06-27T19:00:12.788Z,74.35
2017-06-27T19:02:42.344Z,74.28
2017-06-27T19:05:11.434Z,74.24
2017-06-27T19:07:41.390Z,74.23
2017-06-27T19:10:11.600Z,74.50
2017-06-27T19:12:41.873Z,74.50
2017-06-27T19:15:12.055Z,74.80
2017-06-27T19:17:42.307Z,74.82
2017-06-27T19:20:11.874Z,74.85
2017-06-27T19:22:41.345Z,74.93
2017-06-27T19:25:10.788Z,75.15
2017-06-27T19:27:40.284Z,75.28
2017-06-27T19:30:09.684Z,75.38
2017-06-27T19:32:39.211Z,75.45
2017-06-27T19:35:08.818Z,75.71
2017-06-27T19:37:38.020Z,75.85
2017-06-27T19:40:07.185Z,76.06
2017-06-27T19:42:36.650Z,76.29
2017-06-27T19:45:06.243Z,76.53
2017-06-27T19:47:35.704Z,76.79
2017-06-27T19:50:06.113Z,76.90
2017-06-27T19:52:35.538Z,77.22
2017-06-27T19:55:05.439Z,77.25
2017-06-27T19:57:34.845Z,77.43
2017-06-27T20:00:04.292Z,77.54
2017-06-27T20:02:33.841Z,77.79
2017-06-27T20:05:03.406Z,77.83
2017-06-27T20:07:32.868Z,77.95
2017-06-27T20:10:02.261Z,78.02
2017-06-27T20:12:31.690Z,78.25
2017-06-27T20:15:01.098Z,78.30
2017-06-27T20:17:30.461Z,78.18
2017-06-27T20:20:00.045Z,78.09
2017-06-27T20:22:29.490Z,77.89
2017-06-27T20:24:58.708Z,77.76
2017-06-27T20:27:27.830Z,77.51
2017-06-27T20:29:57.194Z,77.57
2017-06-27T20:32:26.349Z,77.39
2017-06-27T20:34:55.714Z,77.45
2017-06-27T20:37:25.153Z,77.67
2017-06-27T20:39:54.527Z,77.89
2017-06-27T20:42:23.908Z,77.76
2017-06-27T20:44:53.062Z,77.70
2017-06-27T20:47:22.364Z,77.64
2017-06-27T20:49:51.536Z,77.67
2017-06-27T20:52:20.611Z,77.53
2017-06-27T20:54:49.704Z,77.66
2017-06-27T20:57:18.792Z,77.97
2017-06-27T20:59:47.871Z,78.29
2017-06-27T21:02:17.254Z,78.36
2017-06-27T21:04:46.311Z,78.53
2017-06-27T21:07:15.467Z,78.74
2017-06-27T21:09:44.512Z,78.90
2017-06-27T21:12:13.584Z,78.95
2017-06-27T21:14:42.659Z,78.97
2017-06-27T21:17:11.772Z,78.94
2017-06-27T21:19:40.846Z,78.76
2017-06-27T21:22:09.915Z,78.61
2017-06-27T21:24:39.792Z,78.67
2017-06-27T21:27:08.881Z,78.45
2017-06-27T21:29:37.912Z,78.42
2017-06-27T21:32:07.017Z,78.35
2017-06-27T21:34:36.857Z,78.31
2017-06-27T21:37:06.249Z,78.41
2017-06-27T21:39:36.256Z,78.34
2017-06-27T21:42:06.091Z,78.24
2017-06-27T21:44:35.426Z,78.29
2017-06-27T21:47:04.636Z,78.39
2017-06-27T21:49:33.742Z,78.53
2017-06-27T21:52:02.811Z,78.56
2017-06-27T21:54:31.928Z,78.63
2017-06-27T21:57:01.042Z,78.67
2017-06-27T21:59:30.108Z,78.72
2017-06-27T22:01:59.175Z,78.77
2017-06-27T22:04:28.541Z,78.80
2017-06-27T22:06:57.596Z,78.67
2017-06-27T22:09:26.719Z,78.58
2017-06-27T22:11:55.787Z,78.71
2017-06-27T22:14:24.846Z,78.65
2017-06-27T22:16:54.696Z,78.70
2017-06-27T22:19:23.751Z,78.65
2017-06-27T22:21:54.173Z,78.68
2017-06-27T22:24:26.212Z,78.59
2017-06-27T22:26:56.065Z,78.57
2017-06-27T22:29:25.131Z,78.44
2017-06-27T22:31:55.015Z,78.38
2017-06-27T22:34:24.109Z,78.42
2017-06-27T22:36:53.151Z,78.32
2017-06-27T22:39:22.271Z,78.47
2017-06-27T22:41:51.314Z,78.34
2017-06-27T22:44:20.377Z,78.36
2017-06-27T22:46:49.456Z,78.46
2017-06-27T22:49:18.533Z,78.62
2017-06-27T22:51:47.613Z,78.74
2017-06-27T22:54:17.657Z,78.78
2017-06-27T22:56:46.752Z,78.84
2017-06-27T22:59:15.885Z,78.68
2017-06-27T23:01:45.034Z,78.61
2017-06-27T23:04:14.093Z,78.73
2017-06-27T23:06:43.973Z,78.85
2017-06-27T23:09:13.045Z,78.90
2017-06-27T23:11:42.113Z,78.93
2017-06-27T23:14:11.968Z,78.76
2017-06-27T23:16:41.037Z,78.88
2017-06-27T23:19:10.121Z,79.03
2017-06-27T23:21:39.984Z,78.99
2017-06-27T23:24:09.075Z,79.09
2017-06-27T23:26:38.148Z,79.06
2017-06-27T23:29:07.236Z,79.25
2017-06-27T23:31:37.049Z,79.29
2017-06-27T23:34:06.112Z,79.69
2017-06-27T23:36:35.975Z,80.08
2017-06-27T23:39:05.099Z,80.28
2017-06-27T23:41:34.165Z,80.67
2017-06-27T23:44:03.324Z,80.90
2017-06-27T23:46:33.165Z,80.99
2017-06-27T23:49:02.634Z,81.20
2017-06-27T23:51:31.692Z,81.27
2017-06-27T23:54:00.780Z,81.09
2017-06-27T23:56:29.854Z,81.18
2017-06-27T23:58:58.952Z,81.08
